createdAt,value
2019-04-22T00:00:44.824Z,3.94
2019-04-22T00:03:17.971Z,3.85
2019-04-22T00:06:07.251Z,3.80
2019-04-22T00:08:43.289Z,3.82
2019-04-22T00:11:23.980Z,3.79
2019-04-22T00:13:55.546Z,3.75
2019-04-22T00:16:19.143Z,3.93
2019-04-22T00:19:02.983Z,3.83
2019-04-22T00:21:26.355Z,3.82
2019-04-22T00:23:52.587Z,3.90
2019-04-22T00:26:26.103Z,3.87
2019-04-22T00:28:59.302Z,3.61
2019-04-22T00:31:47.963Z,3.63
2019-04-22T00:34:21.283Z,3.52
2019-04-22T00:36:48.118Z,3.48
2019-04-22T00:39:33.722Z,3.55
2019-04-22T00:41:57.022Z,3.49
2019-04-22T00:44:29.992Z,3.31
2019-04-22T00:47:01.191Z,3.54
2019-04-22T00:52:06.285Z,3.67
2019-04-22T00:54:36.217Z,3.39
2019-04-22T00:57:01.532Z,3.39
2019-04-22T00:59:28.646Z,3.41
2019-04-22T01:02:07.561Z,3.35
2019-04-22T01:04:44.211Z,3.45
2019-04-22T01:07:11.521Z,3.45
2019-04-22T01:09:46.383Z,3.45
2019-04-22T01:12:13.630Z,3.22
2019-04-22T01:14:41.311Z,2.90
2019-04-22T01:17:12.117Z,2.68
2019-04-22T01:19:52.616Z,2.64
2019-04-22T01:22:17.579Z,2.84
2019-04-22T01:24:50.279Z,2.68
2019-04-22T01:27:17.469Z,2.83
2019-04-22T01:29:46.906Z,2.68
2019-04-22T01:32:13.198Z,3.09
2019-04-22T01:34:51.513Z,3.35
2019-04-22T01:37:27.094Z,3.30
2019-04-22T01:40:06.569Z,3.12
2019-04-22T01:42:44.370Z,3.26
2019-04-22T01:45:06.681Z,3.45
2019-04-22T01:47:36.744Z,3.48
2019-04-22T01:50:12.124Z,3.37
2019-04-22T01:52:47.360Z,3.12
2019-04-22T01:55:22.595Z,3.05
2019-04-22T01:57:44.479Z,3.00
2019-04-22T02:00:05.051Z,2.85
2019-04-22T02:02:48.957Z,2.81
2019-04-22T02:05:19.068Z,2.88
2019-04-22T02:07:51.538Z,2.70
2019-04-22T02:10:30.130Z,2.58
2019-04-22T02:12:58.803Z,2.65
2019-04-22T02:15:23.783Z,2.45
2019-04-22T02:18:01.239Z,2.44
2019-04-22T02:20:31.112Z,2.74
2019-04-22T02:26:13.022Z,2.46
2019-04-22T02:28:47.653Z,2.40
2019-04-22T02:36:23.027Z,2.66
2019-04-22T02:38:58.774Z,2.53
2019-04-22T02:49:04.157Z,2.53
2019-04-22T02:51:22.164Z,2.45
2019-04-22T02:56:39.610Z,2.56
2019-04-22T03:14:04.866Z,2.57
2019-04-22T03:26:50.431Z,2.86
2019-04-22T03:29:14.932Z,2.97
2019-04-22T03:37:23.315Z,3.48
2019-04-22T03:44:51.790Z,4.01
2019-04-22T03:47:21.676Z,4.01
2019-04-22T03:52:18.046Z,4.04
2019-04-22T03:54:47.698Z,4.16
2019-04-22T03:59:51.950Z,4.56
2019-04-22T04:02:22.001Z,4.70
2019-04-22T04:04:41.615Z,4.82
2019-04-22T04:12:25.160Z,5.36
2019-04-22T04:15:06.064Z,5.63
2019-04-22T04:17:37.832Z,5.91
2019-04-22T04:22:46.661Z,6.54
2019-04-22T04:25:22.077Z,6.96
2019-04-22T04:32:52.517Z,8.14
2019-04-22T04:37:44.579Z,8.54
2019-04-22T04:40:28.811Z,8.67
2019-04-22T04:42:46.262Z,8.80
2019-04-22T04:50:18.382Z,9.29
2019-04-22T04:53:01.458Z,9.57
2019-04-22T04:55:25.864Z,9.76
2019-04-22T04:58:13.789Z,10.03
2019-04-22T05:00:37.328Z,10.30
2019-04-22T05:02:58.471Z,10.56
2019-04-22T05:05:28.884Z,10.98
2019-04-22T05:07:55.413Z,11.36
2019-04-22T05:10:47.807Z,11.58
2019-04-22T05:18:05.763Z,12.12
2019-04-22T05:20:44.826Z,12.38
2019-04-22T05:23:08.301Z,12.43
2019-04-22T05:25:31.980Z,12.38
2019-04-22T05:28:07.550Z,12.62
2019-04-22T05:30:43.738Z,12.91
2019-04-22T05:33:09.300Z,13.03
2019-04-22T05:35:43.102Z,13.10
2019-04-22T05:38:17.264Z,13.18
2019-04-22T05:40:44.103Z,13.51
2019-04-22T05:43:22.615Z,13.64
2019-04-22T05:45:52.680Z,13.73
2019-04-22T05:48:30.170Z,13.80
2019-04-22T05:50:56.436Z,13.82
2019-04-22T05:53:25.892Z,13.97
2019-04-22T05:55:59.749Z,13.94
2019-04-22T05:58:29.376Z,13.96
2019-04-22T06:03:49.270Z,14.00
2019-04-22T06:06:22.574Z,14.07
2019-04-22T06:08:55.895Z,14.15
2019-04-22T06:11:29.393Z,14.23
2019-04-22T06:13:51.967Z,14.25
2019-04-22T06:16:31.280Z,14.36
2019-04-22T06:21:35.429Z,14.84
2019-04-22T06:24:14.128Z,15.01
2019-04-22T06:29:15.010Z,15.19
2019-04-22T06:32:08.093Z,15.40
2019-04-22T06:34:20.838Z,15.61
2019-04-22T06:39:25.975Z,16.05
2019-04-22T06:41:58.877Z,16.38
2019-04-22T06:47:05.326Z,19.23
2019-04-22T06:49:38.334Z,22.24
2019-04-22T06:52:16.881Z,24.48
2019-04-22T06:55:05.963Z,26.39
2019-04-22T06:57:13.786Z,27.63
2019-04-22T07:00:06.353Z,28.22
2019-04-22T07:02:26.713Z,28.18
2019-04-22T07:04:49.471Z,28.78
2019-04-22T07:07:22.055Z,29.02
2019-04-22T07:10:02.554Z,29.63
2019-04-22T07:12:26.033Z,29.63
2019-04-22T07:15:01.696Z,30.12
2019-04-22T07:20:48.057Z,30.88
2019-04-22T07:23:25.917Z,30.79
2019-04-22T07:25:49.921Z,31.93
2019-04-22T07:34:47.402Z,33.03
2019-04-22T07:37:29.598Z,33.95
2019-04-22T07:40:01.845Z,33.87
2019-04-22T07:42:30.035Z,32.24
2019-04-22T07:44:54.841Z,33.59
2019-04-22T07:50:08.427Z,34.38
2019-04-22T07:52:33.643Z,34.31
2019-04-22T07:55:18.377Z,33.77
2019-04-22T07:57:39.654Z,34.86
2019-04-22T08:00:15.987Z,34.08
2019-04-22T08:05:20.650Z,34.92
2019-04-22T08:08:02.605Z,34.39
2019-04-22T08:10:30.209Z,34.73
2019-04-22T08:13:01.924Z,35.21
2019-04-22T08:15:33.069Z,35.79
2019-04-22T08:18:02.928Z,36.38
2019-04-22T08:20:35.081Z,36.10
2019-04-22T08:23:09.247Z,36.00
2019-04-22T08:26:11.144Z,34.41
2019-04-22T08:28:46.498Z,35.32
2019-04-22T08:31:20.295Z,35.74
2019-04-22T08:34:01.731Z,36.02
2019-04-22T08:37:12.169Z,36.67
2019-04-22T08:39:21.445Z,37.51
2019-04-22T08:41:40.310Z,37.92
2019-04-22T08:44:27.967Z,38.00
2019-04-22T08:46:56.168Z,37.16
2019-04-22T08:49:30.477Z,36.82
2019-04-22T08:51:58.881Z,37.47
2019-04-22T08:54:33.412Z,38.38
2019-04-22T08:57:06.802Z,39.36
2019-04-22T08:59:39.565Z,39.12
2019-04-22T09:02:19.959Z,40.29
2019-04-22T09:04:45.373Z,41.32
2019-04-22T09:07:21.189Z,41.62
2019-04-22T09:09:55.684Z,36.99
2019-04-22T09:12:33.147Z,34.90
2019-04-22T09:14:47.595Z,36.18
2019-04-22T09:17:31.823Z,38.20
2019-04-22T09:20:00.003Z,37.75
2019-04-22T09:22:50.344Z,37.97
2019-04-22T09:25:03.094Z,39.28
2019-04-22T09:27:42.959Z,37.48
2019-04-22T09:30:22.390Z,39.05
2019-04-22T09:32:56.247Z,38.93
2019-04-22T09:35:25.125Z,39.07
2019-04-22T09:37:57.364Z,39.57
2019-04-22T09:40:21.691Z,40.17
2019-04-22T09:42:56.148Z,40.37
2019-04-22T09:45:27.563Z,40.13
2019-04-22T09:48:08.388Z,40.79
2019-04-22T09:53:08.327Z,34.95
2019-04-22T09:55:37.396Z,31.71
2019-04-22T09:58:11.878Z,31.21
2019-04-22T10:00:55.876Z,33.47
2019-04-22T10:03:20.357Z,37.11
2019-04-22T10:05:52.728Z,38.30
2019-04-22T10:08:24.072Z,39.72
2019-04-22T10:10:57.732Z,41.51
2019-04-22T10:13:34.711Z,43.28
2019-04-22T10:16:08.061Z,45.04
2019-04-22T10:18:41.738Z,47.47
2019-04-22T10:21:18.862Z,47.72
2019-04-22T10:23:41.672Z,46.96
2019-04-22T10:26:18.828Z,47.67
2019-04-22T10:28:52.805Z,47.44
2019-04-22T10:31:19.397Z,47.98
2019-04-22T10:33:42.252Z,49.28
2019-04-22T10:35:55.346Z,48.56
2019-04-22T10:38:26.476Z,50.54
2019-04-22T10:41:00.702Z,51.05
2019-04-22T10:43:32.821Z,51.86
2019-04-22T10:46:04.093Z,52.85
2019-04-22T10:52:06.941Z,47.12
2019-04-22T10:54:56.841Z,48.30
2019-04-22T10:57:27.640Z,51.60
2019-04-22T10:59:58.547Z,54.98
2019-04-22T11:02:31.826Z,52.63
2019-04-22T11:05:02.096Z,54.34
2019-04-22T11:07:40.453Z,51.35
2019-04-22T11:10:20.472Z,51.40
2019-04-22T11:12:39.460Z,50.40
2019-04-22T11:15:11.661Z,44.43
2019-04-22T11:17:41.870Z,49.84
2019-04-22T11:20:13.420Z,51.24
2019-04-22T11:22:44.628Z,52.05
2019-04-22T11:25:16.080Z,54.17
2019-04-22T11:27:47.688Z,50.33
2019-04-22T11:30:20.975Z,49.36
2019-04-22T11:32:50.653Z,48.50
2019-04-22T11:35:21.847Z,46.71
2019-04-22T11:38:06.592Z,51.31
2019-04-22T11:40:36.390Z,53.32
2019-04-22T11:43:00.002Z,55.42
2019-04-22T11:45:35.401Z,56.45
2019-04-22T11:48:09.048Z,50.72
2019-04-22T11:50:39.998Z,46.59
2019-04-22T11:53:10.983Z,42.92
2019-04-22T11:55:42.454Z,45.61
2019-04-22T11:58:12.938Z,46.33
2019-04-22T12:00:43.290Z,44.28
2019-04-22T12:03:14.807Z,42.50
2019-04-22T12:05:46.049Z,48.17
2019-04-22T12:08:17.251Z,51.17
2019-04-22T12:10:54.210Z,43.01
2019-04-22T12:13:19.837Z,36.93
2019-04-22T12:15:51.149Z,34.72
2019-04-22T12:18:22.931Z,33.71
2019-04-22T12:20:53.187Z,44.21
2019-04-22T12:23:23.208Z,49.97
2019-04-22T12:25:59.938Z,45.66
2019-04-22T12:28:26.691Z,49.30
2019-04-22T12:30:59.524Z,43.63
2019-04-22T12:33:29.654Z,41.69
2019-04-22T12:36:00.362Z,44.11
2019-04-22T12:38:31.500Z,43.93
2019-04-22T12:41:06.286Z,46.32
2019-04-22T12:43:33.658Z,46.85
2019-04-22T12:46:03.611Z,45.86
2019-04-22T12:48:34.927Z,46.57
2019-04-22T12:51:05.346Z,42.86
2019-04-22T12:53:38.129Z,43.71
2019-04-22T12:56:09.112Z,47.07
2019-04-22T12:58:39.024Z,49.58
2019-04-22T13:01:09.031Z,48.82
2019-04-22T13:03:42.727Z,41.72
2019-04-22T13:06:14.064Z,39.30
2019-04-22T13:08:47.665Z,37.99
2019-04-22T13:11:22.993Z,31.69
2019-04-22T13:13:53.013Z,33.48
2019-04-22T13:16:23.029Z,39.52
2019-04-22T13:18:59.043Z,42.28
2019-04-22T13:21:25.032Z,43.06
2019-04-22T13:24:02.529Z,43.71
2019-04-22T13:26:33.810Z,44.23
2019-04-22T13:29:05.188Z,44.60
2019-04-22T13:31:35.283Z,37.90
2019-04-22T13:34:09.493Z,34.95
2019-04-22T13:36:36.717Z,35.98
2019-04-22T13:39:07.352Z,38.03
2019-04-22T13:41:48.038Z,39.80
2019-04-22T13:44:12.754Z,39.25
2019-04-22T13:47:06.818Z,37.11
2019-04-22T13:49:49.473Z,34.65
2019-04-22T13:52:31.939Z,34.43
2019-04-22T13:57:20.064Z,34.77
2019-04-22T13:59:38.890Z,35.01
2019-04-22T14:02:12.810Z,35.31
2019-04-22T14:04:48.829Z,35.32
2019-04-22T14:07:20.887Z,35.62
2019-04-22T14:09:50.819Z,34.31
2019-04-22T14:12:26.664Z,33.61
2019-04-22T14:14:58.459Z,32.52
2019-04-22T14:17:32.499Z,32.48
2019-04-22T14:20:02.661Z,31.88
2019-04-22T14:22:32.585Z,32.07
2019-04-22T14:25:02.884Z,32.74
2019-04-22T14:27:45.578Z,32.60
2019-04-22T14:30:06.447Z,32.18
2019-04-22T14:32:37.950Z,32.02
2019-04-22T14:35:09.395Z,30.93
2019-04-22T14:37:40.282Z,29.03
2019-04-22T14:40:12.305Z,28.03
2019-04-22T14:43:00.534Z,27.94
2019-04-22T14:46:04.025Z,28.08
2019-04-22T14:48:11.012Z,27.54
2019-04-22T14:50:42.245Z,26.97
2019-04-22T14:53:09.876Z,26.34
2019-04-22T14:55:26.907Z,26.28
2019-04-22T14:57:54.957Z,26.50
2019-04-22T15:00:27.274Z,25.92
2019-04-22T15:02:57.588Z,24.72
2019-04-22T15:05:28.183Z,23.56
2019-04-22T15:07:59.168Z,23.77
2019-04-22T15:10:31.632Z,24.45
2019-04-22T15:13:03.089Z,24.94
2019-04-22T15:15:43.610Z,25.25
2019-04-22T15:18:10.765Z,25.36
2019-04-22T15:20:48.740Z,24.87
2019-04-22T15:23:17.643Z,24.38
2019-04-22T15:25:48.395Z,24.13
2019-04-22T15:28:19.827Z,23.66
2019-04-22T15:30:53.227Z,23.25
2019-04-22T15:33:25.871Z,22.86
2019-04-22T15:35:55.737Z,21.81
2019-04-22T15:38:26.150Z,20.89
2019-04-22T15:40:58.687Z,20.10
2019-04-22T15:43:31.246Z,19.77
2019-04-22T15:46:03.346Z,19.49
2019-04-22T15:48:34.122Z,19.40
2019-04-22T15:51:05.081Z,19.42
2019-04-22T15:53:35.806Z,19.38
2019-04-22T15:56:06.056Z,19.22
2019-04-22T15:58:35.945Z,18.99
2019-04-22T16:01:12.930Z,18.74
2019-04-22T16:03:40.640Z,18.60
2019-04-22T16:06:12.200Z,18.44
2019-04-22T16:08:43.690Z,18.15
2019-04-22T16:11:14.082Z,17.99
2019-04-22T16:13:44.306Z,17.84
2019-04-22T16:16:14.600Z,17.35
2019-04-22T16:18:44.572Z,17.35
2019-04-22T16:21:27.677Z,17.20
2019-04-22T16:24:04.538Z,17.01
2019-04-22T16:26:52.055Z,16.83
2019-04-22T16:29:23.306Z,16.51
2019-04-22T16:31:53.478Z,16.32
2019-04-22T16:34:23.844Z,16.14
2019-04-22T16:36:54.614Z,15.87
2019-04-22T16:39:26.742Z,15.81
2019-04-22T16:41:57.010Z,15.58
2019-04-22T16:44:27.987Z,15.59
2019-04-22T16:46:57.812Z,15.52
2019-04-22T16:49:27.823Z,15.30
2019-04-22T16:51:58.415Z,15.06
2019-04-22T16:54:27.846Z,14.93
2019-04-22T16:56:57.684Z,14.69
2019-04-22T16:59:28.673Z,14.45
2019-04-22T17:02:12.886Z,14.42
2019-04-22T17:04:44.484Z,14.34
2019-04-22T17:07:16.151Z,13.99
2019-04-22T17:09:46.103Z,13.68
2019-04-22T17:12:16.226Z,13.38
2019-04-22T17:14:52.690Z,13.15
2019-04-22T17:17:18.312Z,12.98
2019-04-22T17:19:49.406Z,12.76
2019-04-22T17:22:19.699Z,12.54
2019-04-22T17:25:00.124Z,12.47
2019-04-22T17:30:43.793Z,12.28
2019-04-22T17:39:31.611Z,11.74
2019-04-22T17:42:10.924Z,11.46
2019-04-22T17:44:48.356Z,11.20
2019-04-22T17:47:20.621Z,11.07
2019-04-22T17:50:08.297Z,10.99
2019-04-22T17:52:39.261Z,10.74
2019-04-22T17:55:11.233Z,10.69
2019-04-22T17:57:41.599Z,10.57
2019-04-22T18:00:23.598Z,10.48
2019-04-22T18:02:45.919Z,10.40
2019-04-22T18:05:07.611Z,10.34
2019-04-22T18:07:54.875Z,10.57
2019-04-22T18:13:12.044Z,10.28
2019-04-22T18:15:29.391Z,10.31
2019-04-22T18:18:09.136Z,10.22
2019-04-22T18:20:32.228Z,10.02
2019-04-22T18:22:56.774Z,9.90
2019-04-22T18:25:34.212Z,9.80
2019-04-22T18:30:35.299Z,9.89
2019-04-22T18:33:19.382Z,9.90
2019-04-22T18:35:44.488Z,9.88
2019-04-22T18:38:33.157Z,9.91
2019-04-22T18:40:53.655Z,9.85
2019-04-22T18:43:27.723Z,9.76
2019-04-22T18:46:06.544Z,9.51
2019-04-22T18:48:33.303Z,9.39
2019-04-22T18:51:17.225Z,9.32
2019-04-22T18:53:56.935Z,9.23
2019-04-22T18:56:22.017Z,8.93
2019-04-22T18:58:44.934Z,8.83
2019-04-22T19:01:05.960Z,8.83
2019-04-22T19:03:49.713Z,9.04
2019-04-22T19:06:44.090Z,9.14
2019-04-22T19:09:05.620Z,9.10
2019-04-22T19:11:35.462Z,9.14
2019-04-22T19:14:02.308Z,8.93
2019-04-22T19:19:27.513Z,8.43
2019-04-22T19:21:37.970Z,8.61
2019-04-22T19:24:09.478Z,8.78
2019-04-22T19:26:50.075Z,8.70
2019-04-22T19:29:16.875Z,8.58
2019-04-22T19:31:45.474Z,8.74
2019-04-22T19:34:16.620Z,8.86
2019-04-22T19:36:51.599Z,8.99
2019-04-22T19:39:19.246Z,8.88
2019-04-22T19:41:55.570Z,8.60
2019-04-22T19:44:29.153Z,8.67
2019-04-22T19:47:18.161Z,8.72
2019-04-22T19:49:42.715Z,8.62
2019-04-22T19:52:11.239Z,8.73
2019-04-22T19:54:34.146Z,8.68
2019-04-22T19:56:57.443Z,8.59
2019-04-22T19:59:32.748Z,8.54
2019-04-22T20:02:04.595Z,8.41
2019-04-22T20:04:46.301Z,8.26
2019-04-22T20:07:14.134Z,8.00
2019-04-22T20:09:49.397Z,8.00
2019-04-22T20:12:16.565Z,7.90
2019-04-22T20:14:49.718Z,7.74
2019-04-22T20:17:28.613Z,7.71
2019-04-22T20:19:55.502Z,7.71
2019-04-22T20:22:26.720Z,7.84
2019-04-22T20:24:47.583Z,8.02
2019-04-22T20:27:30.338Z,8.20
2019-04-22T20:29:58.274Z,8.31
2019-04-22T20:32:26.581Z,8.22
2019-04-22T20:35:06.012Z,8.10
2019-04-22T20:37:38.562Z,8.00
2019-04-22T20:40:05.499Z,7.75
2019-04-22T20:42:43.761Z,7.44
2019-04-22T20:45:11.743Z,7.39
2019-04-22T20:47:35.738Z,7.41
2019-04-22T20:50:10.898Z,7.62
2019-04-22T20:55:10.777Z,7.26
2019-04-22T20:57:48.302Z,7.17
2019-04-22T21:00:15.084Z,7.19
2019-04-22T21:02:40.192Z,7.41
2019-04-22T21:05:16.753Z,7.48
2019-04-22T21:08:01.545Z,7.43
2019-04-22T21:10:18.608Z,7.27
2019-04-22T21:12:54.253Z,7.26
2019-04-22T21:15:31.454Z,7.17
2019-04-22T21:18:01.192Z,7.15
2019-04-22T21:20:41.169Z,7.27
2019-04-22T21:23:02.944Z,7.33
2019-04-22T21:25:26.402Z,7.25
2019-04-22T21:28:11.322Z,7.00
2019-04-22T21:30:37.657Z,6.89
2019-04-22T21:33:08.289Z,7.11
2019-04-22T21:35:55.047Z,7.22
2019-04-22T21:38:19.014Z,7.29
2019-04-22T21:40:43.802Z,7.36
2019-04-22T21:43:18.514Z,7.25
2019-04-22T21:45:45.426Z,7.27
2019-04-22T21:48:27.933Z,7.12
2019-04-22T21:51:04.817Z,6.98
2019-04-22T21:53:31.825Z,6.86
2019-04-22T21:56:00.348Z,6.83
2019-04-22T21:58:31.849Z,6.60
2019-04-22T22:01:33.037Z,6.62
2019-04-22T22:03:55.539Z,6.45
2019-04-22T22:06:15.123Z,6.30
2019-04-22T22:08:57.865Z,6.09
2019-04-22T22:11:24.106Z,5.90
2019-04-22T22:13:56.382Z,5.88
2019-04-22T22:16:25.069Z,5.82
2019-04-22T22:19:00.831Z,5.74
2019-04-22T22:21:40.711Z,5.75
2019-04-22T22:24:08.980Z,5.65
2019-04-22T22:26:40.099Z,5.71
2019-04-22T22:29:10.161Z,5.74
2019-04-22T22:34:13.747Z,6.11
2019-04-22T22:36:36.328Z,6.33
2019-04-22T22:39:09.972Z,6.34
2019-04-22T22:41:25.963Z,6.40
2019-04-22T22:44:03.218Z,6.27
2019-04-22T22:46:37.430Z,6.18
2019-04-22T22:49:23.708Z,6.18
2019-04-22T22:52:00.015Z,6.06
2019-04-22T22:54:25.113Z,5.89
2019-04-22T22:57:17.696Z,5.85
2019-04-22T22:59:29.215Z,5.77
2019-04-22T23:01:54.142Z,5.75
2019-04-22T23:04:37.623Z,5.61
2019-04-22T23:07:06.911Z,5.51
2019-04-22T23:09:30.766Z,5.49
2019-04-22T23:12:12.172Z,5.65
2019-04-22T23:14:38.211Z,5.76
2019-04-22T23:16:55.044Z,5.99
2019-04-22T23:19:17.943Z,6.15
2019-04-22T23:21:52.677Z,6.20
2019-04-22T23:24:58.163Z,6.16
2019-04-22T23:27:40.278Z,6.09
2019-04-22T23:30:05.394Z,5.88
2019-04-22T23:32:35.725Z,5.66
2019-04-22T23:35:33.261Z,5.53
2019-04-22T23:38:12.081Z,5.51
2019-04-22T23:40:38.602Z,5.70
2019-04-22T23:43:15.314Z,5.67
2019-04-22T23:45:46.670Z,5.48
2019-04-22T23:48:13.065Z,5.49
2019-04-22T23:50:54.146Z,5.68
2019-04-22T23:53:33.122Z,5.75
2019-04-22T23:56:01.809Z,5.71
2019-04-22T23:58:50.029Z,5.59
